Time;durP1;ratioP1;P1;durP2;ratioP2;P2;SDS_P1;SDS_P2;PMS_P1;PMS_P2;Temp;Humidity;BMP_temperature;BMP_pressure;BME280_temperature;BME280_humidity;BME280_pressure;Samples;Min_cycle;Max_cycle;Signal;HPM_P1;HPM_P2
2021/06/30 00:02:44;;;;;;;0.60;0.50;;;13.60;99.90;;;;;;20909040;28;20033;-86
2021/06/30 00:12:45;;;;;;;0.70;0.50;;;13.80;99.90;;;;;;20925063;28;20032;-85
2021/06/30 00:22:46;;;;;;;1.87;0.40;;;13.60;99.90;;;;;;20904318;28;20530;-84
2021/06/30 00:32:47;;;;;;;0.83;0.40;;;13.50;99.90;;;;;;20915342;28;20559;-84
2021/06/30 00:42:48;;;;;;;0.57;0.37;;;13.60;99.90;;;;;;20898025;28;20029;-85
2021/06/30 00:52:49;;;;;;;4.70;0.40;;;13.50;99.90;;;;;;20890272;28;20110;-88
2021/06/30 01:02:50;;;;;;;0.70;0.43;;;13.50;99.90;;;;;;20887699;28;20025;-87
2021/06/30 01:12:52;;;;;;;1.23;0.97;;;13.30;99.90;;;;;;20903168;28;20036;-85
2021/06/30 01:23:10;;;;;;;1.48;0.55;;;13.30;99.90;;;;;;20885841;28;20116;-86
2021/06/30 01:33:11;;;;;;;1.98;0.40;;;13.30;99.90;;;;;;20891562;28;20036;-85
2021/06/30 01:43:12;;;;;;;3.23;0.43;;;13.20;99.90;;;;;;20885202;28;20044;-87
2021/06/30 01:53:13;;;;;;;1.27;0.50;;;13.10;99.90;;;;;;20899900;28;20040;-85
2021/06/30 02:03:14;;;;;;;0.50;0.43;;;13.00;99.90;;;;;;20883542;28;20033;-85
2021/06/30 02:13:15;;;;;;;3.90;1.10;;;12.90;99.90;;;;;;20884443;28;20039;-85
2021/06/30 02:23:16;;;;;;;3.47;0.77;;;12.90;99.90;;;;;;20881010;28;20025;-84
2021/06/30 02:33:16;;;;;;;1.80;0.60;;;12.60;99.90;;;;;;20896652;28;20029;-86
2021/06/30 02:43:17;;;;;;;3.53;1.10;;;12.80;99.90;;;;;;20897220;28;20039;-84
2021/06/30 02:53:18;;;;;;;3.50;1.00;;;12.50;99.90;;;;;;20894175;28;20033;-83
2021/06/30 03:03:19;;;;;;;3.63;0.87;;;12.50;99.90;;;;;;20877664;28;20033;-83
2021/06/30 03:13:20;;;;;;;5.17;0.80;;;12.40;99.90;;;;;;20877022;28;20500;-83
2021/06/30 03:23:21;;;;;;;8.30;3.23;;;12.40;99.90;;;;;;20868301;28;20096;-84
2021/06/30 03:33:22;;;;;;;0.67;0.57;;;12.40;99.90;;;;;;20877960;28;20037;-86
2021/06/30 03:43:23;;;;;;;8.63;2.50;;;12.10;99.90;;;;;;20895608;28;20039;-84
2021/06/30 03:53:24;;;;;;;25.80;3.63;;;12.40;99.90;;;;;;20875931;28;20041;-85
2021/06/30 04:03:25;;;;;;;5.37;3.47;;;12.40;99.90;;;;;;20881592;28;20032;-83
2021/06/30 04:13:26;;;;;;;4.67;2.50;;;12.50;99.90;;;;;;20899080;28;20059;-87
2021/06/30 04:23:27;;;;;;;5.90;4.30;;;12.60;99.90;;;;;;20916656;28;20037;-85
2021/06/30 04:33:31;;;;;;;6.82;4.82;;;13.20;99.90;;;;;;20895456;28;20063;-84
2021/06/30 04:43:32;;;;;;;103.00;8.35;;;13.30;99.90;;;;;;20889957;28;20076;-84
2021/06/30 04:53:33;;;;;;;7.13;5.13;;;12.90;99.90;;;;;;20888259;28;20024;-84
2021/06/30 05:03:34;;;;;;;7.17;4.37;;;12.90;99.90;;;;;;20884981;28;20110;-83
2021/06/30 05:13:35;;;;;;;4.47;2.67;;;13.10;99.90;;;;;;20885444;28;20090;-83
2021/06/30 05:23:36;;;;;;;4.17;1.50;;;13.60;99.90;;;;;;20883118;28;20028;-82
2021/06/30 05:33:37;;;;;;;7.77;1.53;;;14.00;99.90;;;;;;20902207;28;20605;-83
2021/06/30 05:43:38;;;;;;;3.20;0.87;;;13.70;99.90;;;;;;20904083;28;20033;-83
2021/06/30 05:53:39;;;;;;;1.50;1.20;;;13.80;99.90;;;;;;20922805;28;20112;-83
2021/06/30 06:03:40;;;;;;;4.53;1.75;;;13.60;99.90;;;;;;20922572;28;20481;-82
2021/06/30 06:13:44;;;;;;;5.80;1.47;;;13.70;99.90;;;;;;20888886;28;20558;-84
2021/06/30 06:23:45;;;;;;;1.58;0.90;;;13.50;99.90;;;;;;20918959;28;20083;-84
2021/06/30 06:33:46;;;;;;;3.03;1.03;;;13.80;99.90;;;;;;20895797;28;20029;-85
2021/06/30 06:43:47;;;;;;;1.53;0.67;;;13.90;99.90;;;;;;20898348;28;20087;-85
2021/06/30 06:53:48;;;;;;;4.30;0.60;;;14.70;99.90;;;;;;20908047;28;20432;-86
2021/06/30 07:03:50;;;;;;;1.50;0.83;;;14.60;99.90;;;;;;20894860;28;20736;-87
2021/06/30 07:13:51;;;;;;;0.73;0.37;;;14.60;99.90;;;;;;20912208;28;20031;-84
2021/06/30 07:23:52;;;;;;;2.27;0.60;;;14.60;99.90;;;;;;20898582;28;20029;-86
2021/06/30 07:33:53;;;;;;;0.40;0.40;;;14.90;99.90;;;;;;20896501;28;20123;-86
2021/06/30 07:43:54;;;;;;;2.50;0.40;;;14.90;99.90;;;;;;20945746;28;20389;-85
2021/06/30 07:53:55;;;;;;;3.43;0.40;;;15.40;99.90;;;;;;20927973;28;20481;-87
2021/06/30 08:03:55;;;;;;;0.40;0.20;;;15.50;99.90;;;;;;20900147;28;20101;-87
2021/06/30 08:13:56;;;;;;;0.20;0.20;;;15.70;99.90;;;;;;20917335;28;20032;-84
2021/06/30 08:23:57;;;;;;;0.50;0.30;;;16.20;99.90;;;;;;20913970;28;20033;-83
2021/06/30 08:33:58;;;;;;;0.30;0.20;;;17.10;99.90;;;;;;20906434;28;20029;-85
2021/06/30 08:43:59;;;;;;;0.37;0.30;;;17.20;99.90;;;;;;20905747;28;20520;-85
2021/06/30 08:54:02;;;;;;;0.50;0.40;;;17.40;99.90;;;;;;20889785;28;20544;-84
2021/06/30 09:04:04;;;;;;;1.05;0.40;;;18.10;99.90;;;;;;20890222;28;20037;-85
2021/06/30 09:14:43;;;;;;;1.00;0.50;;;17.80;99.90;;;;;;20902801;28;20116;-85
2021/06/30 09:24:45;;;;;;;1.55;0.40;;;18.40;99.90;;;;;;20849600;28;20037;-84
2021/06/30 09:34:46;;;;;;;0.43;0.30;;;19.30;99.90;;;;;;20885014;28;20037;-85
2021/06/30 09:44:46;;;;;;;0.77;0.40;;;18.70;99.90;;;;;;20900254;28;20125;-84
2021/06/30 09:54:48;;;;;;;0.30;0.30;;;19.20;99.90;;;;;;20881929;28;20025;-84
2021/06/30 10:04:59;;;;;;;0.20;0.20;;;19.30;99.90;;;;;;20915629;28;20021;-84
2021/06/30 10:15:02;;;;;;;0.73;0.20;;;20.10;99.90;;;;;;20917578;28;20056;-81
2021/06/30 10:25:04;;;;;;;0.93;0.30;;;19.80;99.90;;;;;;20900501;28;20405;-82
2021/06/30 10:35:16;;;;;;;0.28;0.28;;;18.70;99.90;;;;;;20882979;28;20053;-79
2021/06/30 10:45:23;;;;;;;1.45;0.20;;;18.10;99.90;;;;;;20882609;28;20029;-85
2021/06/30 10:55:36;;;;;;;1.50;0.30;;;20.20;99.90;;;;;;20880735;28;20041;-83
2021/06/30 11:05:37;;;;;;;0.10;0.10;;;21.50;99.90;;;;;;20879065;28;20115;-81
2021/06/30 11:15:39;;;;;;;0.33;0.20;;;20.40;99.90;;;;;;20891915;28;20029;-82
2021/06/30 11:25:40;;;;;;;0.20;0.20;;;21.10;99.90;;;;;;20905923;28;20033;-83
2021/06/30 11:35:45;;;;;;;0.90;0.40;;;20.40;99.90;;;;;;20900186;28;20507;-82
2021/06/30 11:45:46;;;;;;;0.60;0.32;;;19.60;99.90;;;;;;20915704;28;20393;-84
2021/06/30 11:55:47;;;;;;;1.50;0.33;;;20.10;99.90;;;;;;20895570;28;20033;-82
2021/06/30 12:05:48;;;;;;;0.40;0.30;;;20.30;99.90;;;;;;20913911;28;20158;-83
2021/06/30 12:15:48;;;;;;;0.43;0.30;;;20.60;99.90;;;;;;20898372;28;20040;-81
2021/06/30 12:25:49;;;;;;;1.67;1.00;;;20.00;99.90;;;;;;20895713;28;20029;-82
2021/06/30 12:35:50;;;;;;;1.73;0.87;;;19.50;99.90;;;;;;20895276;28;20029;-79
2021/06/30 12:45:54;;;;;;;0.93;0.70;;;21.30;99.90;;;;;;20894312;28;20067;-81
2021/06/30 12:56:09;;;;;;;2.80;1.30;;;21.30;99.90;;;;;;20922178;28;20078;-81
2021/06/30 13:06:25;;;;;;;2.70;0.38;;;20.50;99.90;;;;;;20886618;28;20635;-81
2021/06/30 13:16:27;;;;;;;2.75;0.60;;;19.90;99.90;;;;;;20883605;28;20096;-83
2021/06/30 13:36:30;;;;;;;;;;;20.50;99.90;;;;;;20908078;28;20025;-84
2021/06/30 13:46:31;;;;;;;0.40;0.40;;;20.80;99.90;;;;;;20887214;28;19912;-82
2021/06/30 13:56:33;;;;;;;19.70;9.20;;;19.50;99.90;;;;;;20880662;28;20115;-84
2021/06/30 14:06:33;;;;;;;2.67;1.50;;;19.20;99.90;;;;;;20879349;28;20482;-82
2021/06/30 14:16:35;;;;;;;4.30;0.80;;;19.10;99.90;;;;;;20882859;28;20036;-81
2021/06/30 14:26:37;;;;;;;0.63;0.55;;;17.90;99.90;;;;;;20852844;28;20075;-85
2021/06/30 14:36:37;;;;;;;0.70;0.63;;;17.50;99.90;;;;;;20860867;28;20033;-84
2021/06/30 14:46:38;;;;;;;3.47;0.80;;;17.70;99.90;;;;;;20854584;28;20041;-83
2021/06/30 14:56:39;;;;;;;2.27;0.83;;;17.30;99.90;;;;;;20844186;28;20032;-84
2021/06/30 15:06:40;;;;;;;2.20;1.30;;;16.90;99.90;;;;;;20873481;28;20040;-83
2021/06/30 15:16:41;;;;;;;4.13;0.60;;;16.60;99.90;;;;;;20860802;28;20049;-83
2021/06/30 15:26:46;;;;;;;0.90;0.70;;;16.50;99.90;;;;;;20851760;28;20132;-82
2021/06/30 15:36:49;;;;;;;2.17;1.20;;;16.30;99.90;;;;;;20885097;28;20131;-83
2021/06/30 15:46:51;;;;;;;3.95;0.90;;;16.40;99.90;;;;;;20852372;28;20119;-82
2021/06/30 15:56:52;;;;;;;1.90;0.98;;;16.30;99.90;;;;;;20863582;28;20107;-80
2021/06/30 16:06:53;;;;;;;0.80;0.80;;;16.20;99.90;;;;;;20856329;28;20048;-81
2021/06/30 16:16:54;;;;;;;4.13;1.03;;;15.70;99.90;;;;;;20883153;28;20402;-81
2021/06/30 16:26:55;;;;;;;1.40;1.30;;;15.60;99.90;;;;;;20867199;28;20037;-81
2021/06/30 16:36:57;;;;;;;3.50;1.58;;;15.30;99.90;;;;;;20865335;28;20075;-81
2021/06/30 16:46:58;;;;;;;4.93;1.60;;;15.20;99.90;;;;;;20873535;28;20059;-81
2021/06/30 16:56:59;;;;;;;4.73;2.10;;;15.20;99.90;;;;;;20851638;28;20037;-83
2021/06/30 17:07:00;;;;;;;2.00;0.87;;;14.90;99.90;;;;;;20861594;28;20051;-83
2021/06/30 17:17:01;;;;;;;0.60;0.60;;;14.80;99.90;;;;;;20867985;28;20045;-82
2021/06/30 17:27:01;;;;;;;3.60;0.80;;;14.60;99.90;;;;;;20874530;28;20055;-82
2021/06/30 17:37:03;;;;;;;2.07;0.70;;;14.30;99.90;;;;;;20856207;28;20436;-79
2021/06/30 17:47:04;;;;;;;1.60;0.80;;;14.10;99.90;;;;;;20869538;28;20100;-81
2021/06/30 17:57:06;;;;;;;2.23;1.23;;;14.00;99.90;;;;;;20849844;28;20040;-80
2021/06/30 18:07:07;;;;;;;1.90;1.23;;;13.90;99.90;;;;;;20855900;28;20040;-82
2021/06/30 18:17:09;;;;;;;4.73;1.80;;;13.80;99.90;;;;;;20897862;28;20037;-80
2021/06/30 18:27:10;;;;;;;1.63;0.63;;;13.70;99.90;;;;;;20888276;28;20032;-82
2021/06/30 18:37:12;;;;;;;0.80;0.60;;;13.70;99.90;;;;;;20889224;28;20033;-83
2021/06/30 18:47:12;;;;;;;3.20;1.10;;;13.60;99.90;;;;;;20863676;28;20099;-82
2021/06/30 18:57:14;;;;;;;2.03;1.17;;;13.60;99.90;;;;;;20873261;28;20102;-83
2021/06/30 19:07:14;;;;;;;1.20;0.60;;;13.50;99.90;;;;;;20888439;28;20037;-81
2021/06/30 19:17:16;;;;;;;1.53;0.50;;;13.50;99.90;;;;;;20803092;28;20049;-82
2021/06/30 19:27:18;;;;;;;5.80;1.30;;;13.50;99.90;;;;;;20822997;28;20037;-82
2021/06/30 19:37:19;;;;;;;1.73;1.25;;;13.50;99.90;;;;;;20894021;28;20378;-84
2021/06/30 19:47:20;;;;;;;1.13;0.40;;;13.60;99.90;;;;;;20898392;28;20037;-82
2021/06/30 19:57:21;;;;;;;7.17;0.93;;;13.40;99.90;;;;;;20880444;28;20038;-85
2021/06/30 20:07:21;;;;;;;1.93;1.20;;;13.40;99.90;;;;;;20894194;28;20035;-82
2021/06/30 20:17:22;;;;;;;1.97;1.50;;;13.30;99.90;;;;;;20806632;28;20053;-83
2021/06/30 20:27:24;;;;;;;1.40;1.03;;;13.20;99.90;;;;;;20862541;28;20072;-82
2021/06/30 20:37:33;;;;;;;4.05;2.10;;;13.20;99.90;;;;;;20895994;28;20037;-83
2021/06/30 20:47:35;;;;;;;2.95;1.83;;;13.20;99.90;;;;;;20887330;28;20071;-84
2021/06/30 20:57:36;;;;;;;4.07;1.85;;;13.20;99.90;;;;;;20895467;28;20571;-84
2021/06/30 21:07:37;;;;;;;3.10;2.33;;;13.10;99.90;;;;;;20905918;28;20037;-84
2021/06/30 21:17:40;;;;;;;4.23;2.50;;;13.10;99.90;;;;;;20913296;28;20424;-86
2021/06/30 21:27:42;;;;;;;5.88;3.47;;;13.00;99.90;;;;;;20915390;28;20039;-87
2021/06/30 21:37:44;;;;;;;;;;;12.90;99.90;;;;;;20924748;28;20031;-85
2021/06/30 21:47:46;;;;;;;5.50;2.93;;;12.90;99.90;;;;;;20923296;28;19913;-86
2021/06/30 21:57:49;;;;;;;9.10;3.83;;;12.90;99.90;;;;;;20919287;28;20037;-86
2021/06/30 22:07:51;;;;;;;7.28;3.30;;;12.80;99.90;;;;;;20923811;28;20100;-86
2021/06/30 22:17:53;;;;;;;6.03;3.55;;;12.90;99.90;;;;;;20917254;28;20025;-84
2021/06/30 22:27:55;;;;;;;4.22;3.05;;;12.90;99.90;;;;;;20919668;28;20032;-85
2021/06/30 22:49:19;;;;;;;7.95;3.88;;;13.00;99.90;;;;;;20923024;28;20048;-85
2021/06/30 22:59:21;;;;;;;9.90;4.50;;;12.90;99.90;;;;;;20889308;28;20515;-86
2021/06/30 23:09:22;;;;;;;10.70;4.18;;;12.90;99.90;;;;;;20929035;28;20064;-85
2021/06/30 23:19:23;;;;;;;9.80;3.97;;;12.90;99.90;;;;;;20917348;28;20098;-87
2021/06/30 23:29:24;;;;;;;11.93;4.77;;;12.90;99.90;;;;;;20901127;28;20044;-85
2021/06/30 23:39:25;;;;;;;9.73;4.80;;;12.80;99.90;;;;;;20916895;28;20056;-85
2021/06/30 23:49:26;;;;;;;9.67;4.63;;;12.90;99.90;;;;;;20896276;28;20119;-85
2021/06/30 23:59:27;;;;;;;6.27;3.93;;;12.90;99.90;;;;;;20913845;28;20029;-85
